Orangeburg Municipal Airport
KOGB : now visible

Airfield :











YOU CAN JOIN US ON...

 
LOGIN :

Register | Disclaimer

   EN    FR    IT 

 









Legend :    VFR   Marginal VFR   IFR   Intensive IFR   Very Intensive IFR
Visi :
Ceiling :
>= 8 km
>= 3000ft
5 to 8 km
1000 to 3000 ft
1500m to 5 km
500 to 1000 ft
800 to 1500m
200 to 500 ft
< 800m
< 200 ft
Symbols :   Thunderstorms  Fog  Heavy snow  Heavy precipitations  Wind > 20 kt






- Airport Elevation : 195 ft


KOGB - Orangeburg Municipal

CURRENT METAR :
  • 180453Z AUTO 00000KT 10SM CLR 23/18 A3018 RMK AO2 SLP217 T02280178 403280228

EXPIRED METARs :
  • 180353Z AUTO 11003KT 10SM CLR 24/17 A3018 RMK AO2 SLP216 T02390167
  • 180253Z AUTO 12003KT 10SM CLR 25/17 A3016 RMK AO2 SLP211 T02500167 53017
  • 180153Z AUTO 13004KT 10SM CLR 26/17 A3015 RMK AO2 SLP205 T02560172

TAF KOGB
Valid from the 18 at 06:00 until the 19 at 06:00 UTC


180520Z 1806/1906 00000KT P6SM SCT250
FM181500 10012G18KT P6SM FEW060 SCT250
FM190100 10010KT P6SM SCT250
KZJX FIR / North America



MET'MAP, your aeronautical weather chart ! - Copyright ORBIFLY December 2007 - Disclaimer

ORBIFLY MET'MAP TEAM :

Programming & Development : Alexandra Zaïnal
Original concept : Baudouin d'Aumeries
Technical & hardware support : Manuel Goepfert
Assistance : Marc-Olivier Méhu




SOURCES & CREDITS :

   NOAA       Earth
Advisory